• Join FlightAware (Why Join?)
  • Login
  • US Flag 
08:41PM EDT


 

Airport Tracker/Info


-or-


 

Live Flight TrackerFlight Track Log ✈ SKW5633 ✈ 23-May-2013 ✈ KSEA - KPDX

Flight Track Log - Related Links

Times and Time Zones

All times are in EDT time to prevent confusion due to time zone crossing. See the SKW5633 flight status page for this flight to view local times or setup timezone preferences in your user account.

Time Position Orientation Groundspeed Altitude Reporting Facility
EDT Latitude Longitude Course Direction KTS MPH feet Rate Location/Type
06:54PM 47.4436 -122.3089 182° South 135 155 1,100  Level Seattle Center
06:55PM 47.4306 -122.3097 182° South 135 155 2,000 1,800 Climbing Seattle Center
06:56PM 47.3906 -122.3447 211° Southwest 173 199 3,700 1,620 Climbing Seattle Center
06:57PM 47.3419 -122.3811 207° Southwest 179 206 5,500 1,080 Climbing Seattle Center
06:58PM 47.2956 -122.4167 207° Southwest 191 220 6,100 480 Climbing Seattle Center
06:59PM 47.2572 -122.4419 204° Southwest 195 224 6,400 540 Climbing Seattle Center
07:00PM 47.2008 -122.4333 174° South 188 216 7,100 720 Climbing Seattle Center
07:01PM 47.1506 -122.4128 164° South 196 226 7,900 960 Climbing Seattle Center
07:02PM 47.1183 -122.3522 128° Southeast 188 216 9,100 1,320 Climbing Seattle Center
07:03PM 47.0758 -122.2983 139° Southeast 202 232 10,600 1,500 Climbing Seattle Center
07:04PM 47.0192 -122.3033 183° South 187 215 12,200 1,260 Climbing Seattle Center
07:05PM 46.9628 -122.3100 185° South 204 235 13,300 1,080 Climbing Seattle Center
07:06PM 46.9042 -122.3144 183° South 210 242 14,500 840 Climbing Seattle Center
07:07PM 46.8442 -122.3219 185° South 221 254 15,100 240 Climbing Seattle Center
07:08PM 46.7697 -122.3297 184° South 248 285 15,100  Level Seattle Center
07:09PM 46.7097 -122.3372 185° South 256 295 15,100  Level Seattle Center
07:10PM 46.6397 -122.3439 184° South 257 296 15,100 -60 Level Seattle Center
07:11PM 46.5564 -122.3517 184° South 253 291 15,000  Descending Seattle Center
07:11PM 46.5131 -122.3600 188° South 254 292 15,100 60 Climbing Seattle Center
07:12PM 46.4864 -122.3575 176° South 253 291 15,100  Level Seattle Center
07:12PM 46.4431 -122.3675 189° South 251 289 15,100  Level Seattle Center
07:13PM 46.4175 -122.3628 173° South 253 291 15,100 -360 Level Seattle Center
07:13PM 46.3808 -122.3714 189° South 252 290 14,800 -1,020 Descending Seattle Center
07:14PM 46.3461 -122.3719 181° South 262 302 14,100 -1,620 Descending Seattle Center
07:14PM 46.2942 -122.3828 188° South 270 311 13,000 -1,620 Descending Seattle Center
07:15PM 46.2725 -122.3797 174° South 268 308 12,500 -1,560 Descending Seattle Center
07:17PM 46.1308 -122.3964 185° South 253 291 9,300 -1,620 Descending Seattle Center
07:18PM 46.0861 -122.4042 187° South 248 285 8,300 -1,680 Descending Seattle Center
07:18PM 46.0647 -122.4122 195° South 246 283 7,600 -1,860 Descending Seattle Center
07:19PM 46.0144 -122.4464 205° Southwest 239 275 6,300 -1,500 Descending Seattle Center
07:19PM 46.0050 -122.4522 203° Southwest 238 274 6,100 -240 Descending Seattle Center
07:20PM 45.9594 -122.4753 199° South 230 265 6,100 -120 Level Seattle Center
07:20PM 45.9461 -122.4833 203° Southwest 230 265 6,000  Descending Seattle Center
07:21PM 45.9028 -122.5050 199° South 217 250 6,100 60 Climbing Seattle Center
07:21PM 45.8897 -122.5147 207° Southwest 222 255 6,100  Level Seattle Center
07:22PM 45.8483 -122.5367 200° South 214 246 6,100  Level Seattle Center
07:22PM 45.8231 -122.5522 203° Southwest 216 249 6,100  Level Seattle Center
07:23PM 45.7881 -122.5492 177° South 217 250 6,100  Level Seattle Center
07:23PM 45.7700 -122.5289 142° Southeast 228 262 6,100  Level Seattle Center
07:24PM 45.7433 -122.4994 142° Southeast 224 258 6,100  Level Seattle Center
07:24PM 45.7236 -122.4739 138° Southeast 225 259 6,100  Level Seattle Center
07:25PM 45.7006 -122.4489 143° Southeast 190 219 6,100 -120 Level Seattle Center
07:25PM 45.6825 -122.4250 137° Southeast 207 238 6,000 -360 Descending Seattle Center
07:26PM 45.6661 -122.4075 143° Southeast 175 201 5,800 -1,020 Descending Seattle Center
07:26PM 45.6436 -122.3833 143° Southeast 188 216 5,000 -1,140 Descending Seattle Center
07:27PM 45.6225 -122.3636 147° Southeast 192 221 4,700 -720 Descending Seattle Center
07:27PM 45.6039 -122.3361 134° Southeast 186 214 4,300 -900 Descending Seattle Center
07:28PM 45.5853 -122.3081 133° Southeast 178 205 3,800 -840 Descending Seattle Center
07:28PM 45.5694 -122.2836 133° Southeast 184 212 3,500 -720 Descending Seattle Center
07:29PM 45.5467 -122.2900 191° South 165 190 3,100 -540 Descending Seattle Center
07:29PM 45.5294 -122.3036 209° Southwest 174 200 3,000 -540 Descending Seattle Center
07:30PM 45.5078 -122.3217 210° Southwest 155 178 2,600 -540 Descending Seattle Center
07:30PM 45.5072 -122.3508 268° West 160 184 2,500  Descending Seattle Center
07:31PM 45.5144 -122.3867 286° West 185 213 2,600 -120 Climbing Seattle Center
07:31PM 45.5267 -122.4167 300° West 174 200 2,400 -540 Descending Seattle Center
07:32PM 45.5383 -122.4508 296° West 182 209 2,100 -780 Descending Seattle Center
07:32PM 45.5483 -122.4767 299° West 173 199 1,600 -900 Descending Seattle Center
07:33PM 45.5578 -122.5047 296° West 153 176 1,200 -840 Descending Seattle Center
07:33PM 45.5711 -122.5317 305° West 167 192 800 -840 Descending Seattle Center
07:34PM 45.5794 -122.5575 295° West 129 148 300 -600 Descending Seattle Center
07:34PM 45.5906 -122.5797 306° West 157 181 200 -240 Descending Seattle Center